sensor_id;sensor_type;location;lat;lon;timestamp;P1;durP1;ratioP1;P2;durP2;ratioP2
62582;SDS011;48641;51.676;5.808;2023-03-01T00:01:15;5.93;;;2.40;;
62582;SDS011;48641;51.676;5.808;2023-03-01T00:06:09;5.40;;;2.20;;
62582;SDS011;48641;51.676;5.808;2023-03-01T00:08:39;5.00;;;2.20;;
62582;SDS011;48641;51.676;5.808;2023-03-01T00:11:05;6.68;;;2.40;;
62582;SDS011;48641;51.676;5.808;2023-03-01T00:13:33;5.18;;;2.50;;
62582;SDS011;48641;51.676;5.808;2023-03-01T00:16:01;6.18;;;2.33;;
62582;SDS011;48641;51.676;5.808;2023-03-01T00:18:30;6.22;;;2.40;;
62582;SDS011;48641;51.676;5.808;2023-03-01T00:20:55;5.28;;;2.30;;
62582;SDS011;48641;51.676;5.808;2023-03-01T00:23:21;5.28;;;2.50;;
62582;SDS011;48641;51.676;5.808;2023-03-01T00:25:48;6.38;;;2.50;;
62582;SDS011;48641;51.676;5.808;2023-03-01T00:28:13;5.85;;;2.33;;
62582;SDS011;48641;51.676;5.808;2023-03-01T00:30:40;6.13;;;2.40;;
62582;SDS011;48641;51.676;5.808;2023-03-01T00:33:05;5.10;;;2.30;;
62582;SDS011;48641;51.676;5.808;2023-03-01T00:35:34;4.75;;;2.00;;
62582;SDS011;48641;51.676;5.808;2023-03-01T00:38:00;5.78;;;2.30;;
62582;SDS011;48641;51.676;5.808;2023-03-01T00:40:27;5.57;;;2.45;;
62582;SDS011;48641;51.676;5.808;2023-03-01T00:42:53;5.72;;;2.55;;
62582;SDS011;48641;51.676;5.808;2023-03-01T00:45:19;5.60;;;2.25;;
62582;SDS011;48641;51.676;5.808;2023-03-01T00:47:45;5.63;;;2.20;;
62582;SDS011;48641;51.676;5.808;2023-03-01T00:50:11;5.63;;;2.20;;
62582;SDS011;48641;51.676;5.808;2023-03-01T00:52:37;5.85;;;2.45;;
62582;SDS011;48641;51.676;5.808;2023-03-01T00:55:03;5.10;;;2.15;;
62582;SDS011;48641;51.676;5.808;2023-03-01T00:57:29;5.68;;;2.15;;
62582;SDS011;48641;51.676;5.808;2023-03-01T00:59:55;5.30;;;2.40;;
62582;SDS011;48641;51.676;5.808;2023-03-01T01:02:21;4.78;;;2.17;;
62582;SDS011;48641;51.676;5.808;2023-03-01T01:04:47;5.88;;;2.45;;
62582;SDS011;48641;51.676;5.808;2023-03-01T01:07:13;4.00;;;1.80;;
62582;SDS011;48641;51.676;5.808;2023-03-01T01:09:39;5.35;;;2.28;;
62582;SDS011;48641;51.676;5.808;2023-03-01T01:12:05;6.55;;;2.65;;
62582;SDS011;48641;51.676;5.808;2023-03-01T01:14:31;4.60;;;1.98;;
62582;SDS011;48641;51.676;5.808;2023-03-01T01:16:57;4.65;;;2.15;;
62582;SDS011;48641;51.676;5.808;2023-03-01T01:19:24;4.57;;;2.13;;
62582;SDS011;48641;51.676;5.808;2023-03-01T01:21:50;4.55;;;2.00;;
62582;SDS011;48641;51.676;5.808;2023-03-01T01:24:17;4.25;;;2.08;;
62582;SDS011;48641;51.676;5.808;2023-03-01T01:26:43;4.07;;;1.90;;
62582;SDS011;48641;51.676;5.808;2023-03-01T01:29:10;4.35;;;2.20;;
62582;SDS011;48641;51.676;5.808;2023-03-01T01:31:36;5.60;;;2.45;;
62582;SDS011;48641;51.676;5.808;2023-03-01T01:34:04;4.82;;;2.00;;
62582;SDS011;48641;51.676;5.808;2023-03-01T01:36:32;5.07;;;2.13;;
62582;SDS011;48641;51.676;5.808;2023-03-01T01:38:59;4.97;;;2.00;;
62582;SDS011;48641;51.676;5.808;2023-03-01T01:41:25;4.47;;;2.13;;
62582;SDS011;48641;51.676;5.808;2023-03-01T01:46:37;4.45;;;2.10;;
62582;SDS011;48641;51.676;5.808;2023-03-01T01:49:07;4.65;;;1.95;;
62582;SDS011;48641;51.676;5.808;2023-03-01T01:51:44;3.97;;;2.00;;
62582;SDS011;48641;51.676;5.808;2023-03-01T01:54:20;5.10;;;2.20;;
62582;SDS011;48641;51.676;5.808;2023-03-01T01:57:02;5.95;;;2.33;;
62582;SDS011;48641;51.676;5.808;2023-03-01T01:59:31;4.70;;;2.10;;
62582;SDS011;48641;51.676;5.808;2023-03-01T02:01:59;4.70;;;2.00;;
62582;SDS011;48641;51.676;5.808;2023-03-01T02:04:28;4.72;;;2.10;;
62582;SDS011;48641;51.676;5.808;2023-03-01T02:06:59;5.22;;;2.13;;
62582;SDS011;48641;51.676;5.808;2023-03-01T02:09:28;4.82;;;1.92;;
62582;SDS011;48641;51.676;5.808;2023-03-01T02:11:57;4.43;;;2.10;;
62582;SDS011;48641;51.676;5.808;2023-03-01T02:14:23;5.00;;;2.20;;
62582;SDS011;48641;51.676;5.808;2023-03-01T02:16:48;5.03;;;2.15;;
62582;SDS011;48641;51.676;5.808;2023-03-01T02:19:19;4.97;;;2.08;;
62582;SDS011;48641;51.676;5.808;2023-03-01T02:27:55;4.95;;;1.88;;
62582;SDS011;48641;51.676;5.808;2023-03-01T02:30:23;4.55;;;1.90;;
62582;SDS011;48641;51.676;5.808;2023-03-01T02:32:50;4.63;;;2.10;;
62582;SDS011;48641;51.676;5.808;2023-03-01T02:35:17;4.85;;;2.00;;
62582;SDS011;48641;51.676;5.808;2023-03-01T02:37:44;5.20;;;2.30;;
62582;SDS011;48641;51.676;5.808;2023-03-01T02:40:12;4.32;;;1.80;;
62582;SDS011;48641;51.676;5.808;2023-03-01T02:42:55;5.05;;;1.92;;
62582;SDS011;48641;51.676;5.808;2023-03-01T02:45:23;4.18;;;1.98;;
62582;SDS011;48641;51.676;5.808;2023-03-01T02:47:49;5.22;;;1.95;;
62582;SDS011;48641;51.676;5.808;2023-03-01T02:50:19;4.53;;;1.90;;
62582;SDS011;48641;51.676;5.808;2023-03-01T02:52:53;4.72;;;2.05;;
62582;SDS011;48641;51.676;5.808;2023-03-01T02:55:21;5.22;;;2.20;;
62582;SDS011;48641;51.676;5.808;2023-03-01T02:57:46;6.38;;;2.30;;
62582;SDS011;48641;51.676;5.808;2023-03-01T03:02:51;4.72;;;2.03;;
62582;SDS011;48641;51.676;5.808;2023-03-01T03:05:19;4.78;;;2.00;;
62582;SDS011;48641;51.676;5.808;2023-03-01T03:07:48;4.47;;;1.70;;
62582;SDS011;48641;51.676;5.808;2023-03-01T03:10:15;5.82;;;2.10;;
62582;SDS011;48641;51.676;5.808;2023-03-01T03:12:59;6.05;;;2.10;;
62582;SDS011;48641;51.676;5.808;2023-03-01T03:15:26;4.53;;;1.95;;
62582;SDS011;48641;51.676;5.808;2023-03-01T03:17:53;4.57;;;2.00;;
62582;SDS011;48641;51.676;5.808;2023-03-01T03:20:20;5.35;;;2.03;;
62582;SDS011;48641;51.676;5.808;2023-03-01T03:22:48;4.38;;;2.00;;
62582;SDS011;48641;51.676;5.808;2023-03-01T03:25:15;4.55;;;1.77;;
62582;SDS011;48641;51.676;5.808;2023-03-01T03:27:42;4.80;;;2.00;;
62582;SDS011;48641;51.676;5.808;2023-03-01T03:30:10;3.80;;;1.90;;
62582;SDS011;48641;51.676;5.808;2023-03-01T03:32:38;5.25;;;1.95;;
62582;SDS011;48641;51.676;5.808;2023-03-01T03:35:05;5.32;;;1.98;;
62582;SDS011;48641;51.676;5.808;2023-03-01T03:37:40;4.30;;;1.85;;
62582;SDS011;48641;51.676;5.808;2023-03-01T03:40:26;4.97;;;1.95;;
62582;SDS011;48641;51.676;5.808;2023-03-01T03:42:53;4.47;;;1.80;;
62582;SDS011;48641;51.676;5.808;2023-03-01T03:45:19;4.40;;;2.03;;
62582;SDS011;48641;51.676;5.808;2023-03-01T03:47:45;4.65;;;1.85;;
62582;SDS011;48641;51.676;5.808;2023-03-01T03:50:12;4.05;;;2.05;;
62582;SDS011;48641;51.676;5.808;2023-03-01T03:52:40;4.80;;;2.00;;
62582;SDS011;48641;51.676;5.808;2023-03-01T03:55:06;5.00;;;2.13;;
62582;SDS011;48641;51.676;5.808;2023-03-01T03:57:36;4.22;;;1.73;;
62582;SDS011;48641;51.676;5.808;2023-03-01T04:00:06;4.05;;;1.92;;
62582;SDS011;48641;51.676;5.808;2023-03-01T04:02:43;4.20;;;1.85;;
62582;SDS011;48641;51.676;5.808;2023-03-01T04:05:11;4.75;;;2.05;;
62582;SDS011;48641;51.676;5.808;2023-03-01T04:07:39;4.75;;;1.88;;
62582;SDS011;48641;51.676;5.808;2023-03-01T04:10:06;4.38;;;1.90;;
62582;SDS011;48641;51.676;5.808;2023-03-01T04:12:33;4.17;;;1.93;;
62582;SDS011;48641;51.676;5.808;2023-03-01T04:15:03;3.95;;;1.90;;
62582;SDS011;48641;51.676;5.808;2023-03-01T04:17:38;5.10;;;2.10;;
62582;SDS011;48641;51.676;5.808;2023-03-01T04:20:15;4.13;;;1.80;;
62582;SDS011;48641;51.676;5.808;2023-03-01T04:22:42;5.45;;;2.00;;
62582;SDS011;48641;51.676;5.808;2023-03-01T04:25:11;4.95;;;2.08;;
62582;SDS011;48641;51.676;5.808;2023-03-01T04:27:39;4.88;;;1.92;;
62582;SDS011;48641;51.676;5.808;2023-03-01T04:30:06;4.07;;;1.80;;
62582;SDS011;48641;51.676;5.808;2023-03-01T04:32:33;4.63;;;1.90;;
62582;SDS011;48641;51.676;5.808;2023-03-01T04:34:59;6.05;;;2.10;;
62582;SDS011;48641;51.676;5.808;2023-03-01T04:37:25;4.47;;;1.92;;
62582;SDS011;48641;51.676;5.808;2023-03-01T04:39:51;4.57;;;1.75;;
62582;SDS011;48641;51.676;5.808;2023-03-01T04:42:17;5.43;;;2.00;;
62582;SDS011;48641;51.676;5.808;2023-03-01T04:44:43;4.43;;;1.77;;
62582;SDS011;48641;51.676;5.808;2023-03-01T04:47:09;4.45;;;1.90;;
62582;SDS011;48641;51.676;5.808;2023-03-01T04:49:35;4.35;;;1.80;;
62582;SDS011;48641;51.676;5.808;2023-03-01T04:52:00;5.50;;;1.92;;
62582;SDS011;48641;51.676;5.808;2023-03-01T04:54:29;4.38;;;1.67;;
62582;SDS011;48641;51.676;5.808;2023-03-01T04:56:58;3.88;;;1.70;;
62582;SDS011;48641;51.676;5.808;2023-03-01T04:59:25;5.20;;;2.10;;
62582;SDS011;48641;51.676;5.808;2023-03-01T05:01:51;5.85;;;2.25;;
62582;SDS011;48641;51.676;5.808;2023-03-01T05:04:18;5.32;;;2.08;;
62582;SDS011;48641;51.676;5.808;2023-03-01T05:06:44;3.80;;;1.75;;
62582;SDS011;48641;51.676;5.808;2023-03-01T05:09:09;4.85;;;1.90;;
62582;SDS011;48641;51.676;5.808;2023-03-01T05:11:36;4.75;;;1.80;;
62582;SDS011;48641;51.676;5.808;2023-03-01T05:14:02;4.63;;;2.00;;
62582;SDS011;48641;51.676;5.808;2023-03-01T05:16:28;4.85;;;2.00;;
62582;SDS011;48641;51.676;5.808;2023-03-01T05:18:55;4.47;;;1.95;;
62582;SDS011;48641;51.676;5.808;2023-03-01T05:21:21;4.70;;;2.03;;
62582;SDS011;48641;51.676;5.808;2023-03-01T05:23:47;5.75;;;2.35;;
62582;SDS011;48641;51.676;5.808;2023-03-01T05:26:13;4.20;;;1.85;;
62582;SDS011;48641;51.676;5.808;2023-03-01T05:28:40;4.38;;;1.80;;
62582;SDS011;48641;51.676;5.808;2023-03-01T05:31:06;5.13;;;2.03;;
62582;SDS011;48641;51.676;5.808;2023-03-01T05:33:34;4.38;;;1.92;;
62582;SDS011;48641;51.676;5.808;2023-03-01T05:36:02;4.80;;;2.03;;
62582;SDS011;48641;51.676;5.808;2023-03-01T05:38:27;5.18;;;2.05;;
62582;SDS011;48641;51.676;5.808;2023-03-01T05:40:53;5.10;;;1.90;;
62582;SDS011;48641;51.676;5.808;2023-03-01T05:43:19;6.03;;;1.98;;
62582;SDS011;48641;51.676;5.808;2023-03-01T05:45:44;4.60;;;1.83;;
62582;SDS011;48641;51.676;5.808;2023-03-01T05:48:10;4.63;;;2.03;;
62582;SDS011;48641;51.676;5.808;2023-03-01T05:50:38;4.55;;;2.10;;
62582;SDS011;48641;51.676;5.808;2023-03-01T05:53:10;4.63;;;2.20;;
62582;SDS011;48641;51.676;5.808;2023-03-01T05:55:38;4.88;;;2.08;;
62582;SDS011;48641;51.676;5.808;2023-03-01T05:58:05;3.85;;;1.92;;
62582;SDS011;48641;51.676;5.808;2023-03-01T06:00:35;4.50;;;2.10;;
62582;SDS011;48641;51.676;5.808;2023-03-01T06:03:04;4.63;;;1.92;;
62582;SDS011;48641;51.676;5.808;2023-03-01T06:05:30;5.07;;;2.08;;
62582;SDS011;48641;51.676;5.808;2023-03-01T06:07:58;4.28;;;2.05;;
62582;SDS011;48641;51.676;5.808;2023-03-01T06:10:24;5.43;;;2.05;;
62582;SDS011;48641;51.676;5.808;2023-03-01T06:12:50;6.45;;;2.47;;
62582;SDS011;48641;51.676;5.808;2023-03-01T06:15:16;5.72;;;2.30;;
62582;SDS011;48641;51.676;5.808;2023-03-01T06:17:43;4.63;;;2.05;;
62582;SDS011;48641;51.676;5.808;2023-03-01T06:20:12;4.72;;;2.30;;
62582;SDS011;48641;51.676;5.808;2023-03-01T08:33:45;4.88;;;1.63;;
62582;SDS011;48641;51.676;5.808;2023-03-01T08:36:15;5.13;;;2.00;;
62582;SDS011;48641;51.676;5.808;2023-03-01T08:38:42;5.03;;;2.05;;
62582;SDS011;48641;51.676;5.808;2023-03-01T08:41:07;4.18;;;1.90;;
62582;SDS011;48641;51.676;5.808;2023-03-01T08:43:33;5.40;;;2.17;;
62582;SDS011;48641;51.676;5.808;2023-03-01T08:45:58;4.15;;;1.85;;
62582;SDS011;48641;51.676;5.808;2023-03-01T08:48:25;4.32;;;1.98;;
62582;SDS011;48641;51.676;5.808;2023-03-01T08:50:52;3.67;;;1.75;;
62582;SDS011;48641;51.676;5.808;2023-03-01T08:53:18;3.65;;;1.63;;
62582;SDS011;48641;51.676;5.808;2023-03-01T08:55:43;4.10;;;1.95;;
62582;SDS011;48641;51.676;5.808;2023-03-01T08:58:09;5.55;;;2.00;;
62582;SDS011;48641;51.676;5.808;2023-03-01T09:00:35;5.65;;;2.30;;
62582;SDS011;48641;51.676;5.808;2023-03-01T09:03:00;4.28;;;1.92;;
62582;SDS011;48641;51.676;5.808;2023-03-01T09:05:26;4.85;;;2.15;;
62582;SDS011;48641;51.676;5.808;2023-03-01T09:07:52;5.47;;;1.90;;
62582;SDS011;48641;51.676;5.808;2023-03-01T09:10:17;4.03;;;1.70;;
62582;SDS011;48641;51.676;5.808;2023-03-01T09:12:43;4.03;;;1.67;;
62582;SDS011;48641;51.676;5.808;2023-03-01T09:15:09;4.13;;;1.70;;
62582;SDS011;48641;51.676;5.808;2023-03-01T09:17:35;4.18;;;1.60;;
62582;SDS011;48641;51.676;5.808;2023-03-01T09:20:01;4.78;;;1.90;;
62582;SDS011;48641;51.676;5.808;2023-03-01T09:22:30;4.13;;;2.10;;
62582;SDS011;48641;51.676;5.808;2023-03-01T09:24:57;4.68;;;1.80;;
62582;SDS011;48641;51.676;5.808;2023-03-01T09:27:24;3.92;;;1.70;;
62582;SDS011;48641;51.676;5.808;2023-03-01T09:29:50;4.38;;;1.60;;
62582;SDS011;48641;51.676;5.808;2023-03-01T09:32:15;5.03;;;1.60;;
62582;SDS011;48641;51.676;5.808;2023-03-01T09:34:41;5.63;;;2.00;;
62582;SDS011;48641;51.676;5.808;2023-03-01T09:37:27;3.78;;;1.52;;
62582;SDS011;48641;51.676;5.808;2023-03-01T09:39:52;4.28;;;1.77;;
62582;SDS011;48641;51.676;5.808;2023-03-01T09:42:18;3.58;;;1.60;;
62582;SDS011;48641;51.676;5.808;2023-03-01T09:44:57;3.13;;;1.60;;
62582;SDS011;48641;51.676;5.808;2023-03-01T09:47:36;4.30;;;1.50;;
62582;SDS011;48641;51.676;5.808;2023-03-01T09:50:18;3.28;;;1.30;;
62582;SDS011;48641;51.676;5.808;2023-03-01T09:53:04;3.65;;;1.38;;
62582;SDS011;48641;51.676;5.808;2023-03-01T09:55:40;3.97;;;1.65;;
62582;SDS011;48641;51.676;5.808;2023-03-01T09:58:26;3.70;;;1.60;;
62582;SDS011;48641;51.676;5.808;2023-03-01T10:04:09;3.53;;;1.42;;
62582;SDS011;48641;51.676;5.808;2023-03-01T10:06:44;3.70;;;1.65;;
62582;SDS011;48641;51.676;5.808;2023-03-01T10:09:35;3.72;;;1.55;;
62582;SDS011;48641;51.676;5.808;2023-03-01T10:12:04;4.22;;;1.50;;
62582;SDS011;48641;51.676;5.808;2023-03-01T10:14:39;4.35;;;1.80;;
62582;SDS011;48641;51.676;5.808;2023-03-01T10:17:23;4.60;;;1.70;;
62582;SDS011;48641;51.676;5.808;2023-03-01T10:20:08;3.13;;;1.48;;
62582;SDS011;48641;51.676;5.808;2023-03-01T10:22:49;3.90;;;1.67;;
62582;SDS011;48641;51.676;5.808;2023-03-01T10:25:20;3.05;;;1.40;;
62582;SDS011;48641;51.676;5.808;2023-03-01T10:28:02;3.40;;;1.30;;
62582;SDS011;48641;51.676;5.808;2023-03-01T10:30:38;3.95;;;1.42;;
62582;SDS011;48641;51.676;5.808;2023-03-01T10:35:53;4.05;;;1.50;;
62582;SDS011;48641;51.676;5.808;2023-03-01T10:38:19;4.30;;;1.52;;
62582;SDS011;48641;51.676;5.808;2023-03-01T10:40:55;4.78;;;1.70;;
62582;SDS011;48641;51.676;5.808;2023-03-01T10:43:22;2.83;;;1.30;;
62582;SDS011;48641;51.676;5.808;2023-03-01T10:45:53;3.33;;;1.27;;
62582;SDS011;48641;51.676;5.808;2023-03-01T10:48:19;3.47;;;1.50;;
62582;SDS011;48641;51.676;5.808;2023-03-01T10:53:24;3.40;;;1.38;;
62582;SDS011;48641;51.676;5.808;2023-03-01T10:56:01;3.45;;;1.30;;
62582;SDS011;48641;51.676;5.808;2023-03-01T10:58:35;4.00;;;1.50;;
62582;SDS011;48641;51.676;5.808;2023-03-01T11:03:37;2.97;;;1.27;;
62582;SDS011;48641;51.676;5.808;2023-03-01T11:08:42;3.35;;;1.48;;
62582;SDS011;48641;51.676;5.808;2023-03-01T11:11:21;3.45;;;1.30;;
62582;SDS011;48641;51.676;5.808;2023-03-01T11:16:38;4.15;;;1.60;;
62582;SDS011;48641;51.676;5.808;2023-03-01T11:21:35;3.47;;;1.30;;
62582;SDS011;48641;51.676;5.808;2023-03-01T11:24:04;3.90;;;1.45;;
62582;SDS011;48641;51.676;5.808;2023-03-01T11:26:36;3.85;;;1.33;;
62582;SDS011;48641;51.676;5.808;2023-03-01T11:29:07;3.20;;;1.30;;
62582;SDS011;48641;51.676;5.808;2023-03-01T11:31:43;4.75;;;1.38;;
62582;SDS011;48641;51.676;5.808;2023-03-01T11:34:11;3.50;;;1.20;;
62582;SDS011;48641;51.676;5.808;2023-03-01T11:36:44;3.38;;;1.30;;
62582;SDS011;48641;51.676;5.808;2023-03-01T11:45:02;3.70;;;1.63;;
62582;SDS011;48641;51.676;5.808;2023-03-01T11:50:41;4.03;;;1.40;;
62582;SDS011;48641;51.676;5.808;2023-03-01T11:53:26;3.70;;;1.48;;
62582;SDS011;48641;51.676;5.808;2023-03-01T11:55:59;3.03;;;1.33;;
62582;SDS011;48641;51.676;5.808;2023-03-01T12:01:32;2.22;;;1.10;;
62582;SDS011;48641;51.676;5.808;2023-03-01T12:04:47;2.72;;;1.35;;
62582;SDS011;48641;51.676;5.808;2023-03-01T12:07:38;3.03;;;1.10;;
62582;SDS011;48641;51.676;5.808;2023-03-01T12:10:22;2.85;;;1.20;;
62582;SDS011;48641;51.676;5.808;2023-03-01T12:15:38;3.60;;;1.35;;
62582;SDS011;48641;51.676;5.808;2023-03-01T12:18:19;3.15;;;1.20;;
62582;SDS011;48641;51.676;5.808;2023-03-01T12:29:06;4.25;;;1.50;;
62582;SDS011;48641;51.676;5.808;2023-03-01T12:34:37;4.07;;;1.42;;
62582;SDS011;48641;51.676;5.808;2023-03-01T12:37:42;3.60;;;1.20;;
62582;SDS011;48641;51.676;5.808;2023-03-01T12:52:00;3.13;;;1.30;;
62582;SDS011;48641;51.676;5.808;2023-03-01T12:54:35;3.17;;;1.10;;
62582;SDS011;48641;51.676;5.808;2023-03-01T13:02:40;3.80;;;1.30;;
62582;SDS011;48641;51.676;5.808;2023-03-01T13:13:22;3.72;;;1.20;;
62582;SDS011;48641;51.676;5.808;2023-03-01T13:15:49;2.83;;;1.20;;
62582;SDS011;48641;51.676;5.808;2023-03-01T13:20:49;3.20;;;1.10;;
62582;SDS011;48641;51.676;5.808;2023-03-01T13:30:59;2.35;;;0.93;;
62582;SDS011;48641;51.676;5.808;2023-03-01T13:35:57;2.15;;;1.05;;
62582;SDS011;48641;51.676;5.808;2023-03-01T13:41:14;2.75;;;1.08;;
62582;SDS011;48641;51.676;5.808;2023-03-01T13:43:41;3.33;;;1.33;;
62582;SDS011;48641;51.676;5.808;2023-03-01T13:46:10;4.35;;;1.20;;
62582;SDS011;48641;51.676;5.808;2023-03-01T13:48:45;2.65;;;1.20;;
62582;SDS011;48641;51.676;5.808;2023-03-01T13:51:15;2.55;;;1.08;;
62582;SDS011;48641;51.676;5.808;2023-03-01T13:53:45;2.58;;;1.00;;
62582;SDS011;48641;51.676;5.808;2023-03-01T13:56:16;2.60;;;1.10;;
62582;SDS011;48641;51.676;5.808;2023-03-01T13:58:53;2.75;;;1.20;;
62582;SDS011;48641;51.676;5.808;2023-03-01T14:01:26;3.03;;;1.23;;
62582;SDS011;48641;51.676;5.808;2023-03-01T14:03:54;2.97;;;1.20;;
62582;SDS011;48641;51.676;5.808;2023-03-01T14:06:21;3.20;;;1.10;;
62582;SDS011;48641;51.676;5.808;2023-03-01T14:08:51;2.45;;;1.00;;
62582;SDS011;48641;51.676;5.808;2023-03-01T14:17:00;3.13;;;1.20;;
62582;SDS011;48641;51.676;5.808;2023-03-01T14:19:29;3.45;;;1.40;;
62582;SDS011;48641;51.676;5.808;2023-03-01T14:24:48;4.55;;;1.08;;
62582;SDS011;48641;51.676;5.808;2023-03-01T14:27:19;2.95;;;1.10;;
62582;SDS011;48641;51.676;5.808;2023-03-01T14:29:56;2.35;;;1.02;;
62582;SDS011;48641;51.676;5.808;2023-03-01T14:32:29;2.33;;;1.00;;
62582;SDS011;48641;51.676;5.808;2023-03-01T14:34:58;3.05;;;1.23;;
62582;SDS011;48641;51.676;5.808;2023-03-01T14:40:00;2.58;;;1.10;;
62582;SDS011;48641;51.676;5.808;2023-03-01T14:42:31;3.85;;;1.20;;
62582;SDS011;48641;51.676;5.808;2023-03-01T14:45:00;2.90;;;1.10;;
62582;SDS011;48641;51.676;5.808;2023-03-01T14:47:29;2.47;;;0.95;;
62582;SDS011;48641;51.676;5.808;2023-03-01T14:50:05;2.75;;;1.20;;
62582;SDS011;48641;51.676;5.808;2023-03-01T14:52:45;2.35;;;1.13;;
62582;SDS011;48641;51.676;5.808;2023-03-01T14:55:17;3.00;;;1.10;;
62582;SDS011;48641;51.676;5.808;2023-03-01T14:57:50;3.00;;;1.35;;
62582;SDS011;48641;51.676;5.808;2023-03-01T15:00:27;2.72;;;1.15;;
62582;SDS011;48641;51.676;5.808;2023-03-01T15:02:55;2.75;;;1.17;;
62582;SDS011;48641;51.676;5.808;2023-03-01T15:07:56;3.15;;;1.20;;
62582;SDS011;48641;51.676;5.808;2023-03-01T15:10:25;2.78;;;1.20;;
62582;SDS011;48641;51.676;5.808;2023-03-01T15:12:53;3.95;;;1.20;;
62582;SDS011;48641;51.676;5.808;2023-03-01T15:15:30;2.75;;;1.08;;
62582;SDS011;48641;51.676;5.808;2023-03-01T15:18:03;3.90;;;1.13;;
62582;SDS011;48641;51.676;5.808;2023-03-01T15:20:31;2.75;;;1.08;;
62582;SDS011;48641;51.676;5.808;2023-03-01T15:23:00;2.60;;;1.08;;
62582;SDS011;48641;51.676;5.808;2023-03-01T15:25:27;2.72;;;1.00;;
62582;SDS011;48641;51.676;5.808;2023-03-01T15:27:55;2.63;;;1.00;;
62582;SDS011;48641;51.676;5.808;2023-03-01T15:30:27;2.83;;;1.00;;
62582;SDS011;48641;51.676;5.808;2023-03-01T15:35:52;2.85;;;1.13;;
62582;SDS011;48641;51.676;5.808;2023-03-01T15:38:26;2.97;;;1.10;;
62582;SDS011;48641;51.676;5.808;2023-03-01T15:40:52;3.45;;;1.23;;
62582;SDS011;48641;51.676;5.808;2023-03-01T15:46:18;3.38;;;1.13;;
62582;SDS011;48641;51.676;5.808;2023-03-01T15:48:49;2.45;;;1.00;;
62582;SDS011;48641;51.676;5.808;2023-03-01T15:51:19;2.85;;;1.10;;
62582;SDS011;48641;51.676;5.808;2023-03-01T15:53:52;1.77;;;1.08;;
62582;SDS011;48641;51.676;5.808;2023-03-01T15:56:18;3.10;;;1.05;;
62582;SDS011;48641;51.676;5.808;2023-03-01T15:58:44;3.70;;;1.05;;
62582;SDS011;48641;51.676;5.808;2023-03-01T16:01:12;3.78;;;1.10;;
62582;SDS011;48641;51.676;5.808;2023-03-01T16:03:39;2.08;;;0.90;;
62582;SDS011;48641;51.676;5.808;2023-03-01T16:06:05;3.17;;;1.20;;
62582;SDS011;48641;51.676;5.808;2023-03-01T16:08:31;2.45;;;1.10;;
62582;SDS011;48641;51.676;5.808;2023-03-01T16:10:56;2.55;;;1.00;;
62582;SDS011;48641;51.676;5.808;2023-03-01T16:13:22;3.53;;;1.17;;
62582;SDS011;48641;51.676;5.808;2023-03-01T16:15:50;3.17;;;1.30;;
62582;SDS011;48641;51.676;5.808;2023-03-01T16:18:16;1.90;;;0.90;;
62582;SDS011;48641;51.676;5.808;2023-03-01T16:20:42;2.80;;;1.30;;
62582;SDS011;48641;51.676;5.808;2023-03-01T16:23:08;3.72;;;1.30;;
62582;SDS011;48641;51.676;5.808;2023-03-01T16:25:35;2.67;;;1.08;;
62582;SDS011;48641;51.676;5.808;2023-03-01T16:28:02;3.10;;;1.20;;
62582;SDS011;48641;51.676;5.808;2023-03-01T16:30:33;1.88;;;0.93;;
62582;SDS011;48641;51.676;5.808;2023-03-01T16:33:00;2.80;;;1.00;;
62582;SDS011;48641;51.676;5.808;2023-03-01T16:35:31;3.17;;;1.10;;
62582;SDS011;48641;51.676;5.808;2023-03-01T16:37:57;2.65;;;1.00;;
62582;SDS011;48641;51.676;5.808;2023-03-01T16:40:26;2.97;;;1.10;;
62582;SDS011;48641;51.676;5.808;2023-03-01T16:42:53;3.00;;;1.10;;
62582;SDS011;48641;51.676;5.808;2023-03-01T16:45:24;2.30;;;1.00;;
62582;SDS011;48641;51.676;5.808;2023-03-01T16:47:50;2.13;;;1.00;;
62582;SDS011;48641;51.676;5.808;2023-03-01T16:50:18;3.70;;;1.17;;
62582;SDS011;48641;51.676;5.808;2023-03-01T16:52:44;2.58;;;1.00;;
62582;SDS011;48641;51.676;5.808;2023-03-01T16:55:10;6.03;;;2.10;;
62582;SDS011;48641;51.676;5.808;2023-03-01T16:57:37;4.70;;;1.40;;
62582;SDS011;48641;51.676;5.808;2023-03-01T17:00:06;4.43;;;1.48;;
62582;SDS011;48641;51.676;5.808;2023-03-01T17:02:34;3.85;;;1.45;;
62582;SDS011;48641;51.676;5.808;2023-03-01T17:05:01;4.47;;;1.23;;
62582;SDS011;48641;51.676;5.808;2023-03-01T17:07:29;3.15;;;1.30;;
62582;SDS011;48641;51.676;5.808;2023-03-01T17:09:59;3.60;;;1.15;;
62582;SDS011;48641;51.676;5.808;2023-03-01T17:12:26;4.22;;;1.30;;
62582;SDS011;48641;51.676;5.808;2023-03-01T17:14:52;3.65;;;1.35;;
62582;SDS011;48641;51.676;5.808;2023-03-01T17:17:18;2.67;;;1.17;;
62582;SDS011;48641;51.676;5.808;2023-03-01T17:19:43;3.97;;;1.30;;
62582;SDS011;48641;51.676;5.808;2023-03-01T17:22:09;4.00;;;1.30;;
62582;SDS011;48641;51.676;5.808;2023-03-01T17:24:36;3.17;;;1.35;;
62582;SDS011;48641;51.676;5.808;2023-03-01T17:27:03;3.42;;;1.30;;
62582;SDS011;48641;51.676;5.808;2023-03-01T17:29:29;3.33;;;1.30;;
62582;SDS011;48641;51.676;5.808;2023-03-01T17:31:55;3.33;;;1.27;;
62582;SDS011;48641;51.676;5.808;2023-03-01T17:34:21;6.15;;;1.50;;
62582;SDS011;48641;51.676;5.808;2023-03-01T17:36:48;5.93;;;1.58;;
62582;SDS011;48641;51.676;5.808;2023-03-01T17:39:16;5.15;;;1.30;;
62582;SDS011;48641;51.676;5.808;2023-03-01T17:41:44;3.70;;;1.40;;
62582;SDS011;48641;51.676;5.808;2023-03-01T17:44:10;3.58;;;1.40;;
62582;SDS011;48641;51.676;5.808;2023-03-01T19:46:55;4.97;;;1.92;;
62582;SDS011;48641;51.676;5.808;2023-03-01T20:42:48;5.20;;;2.03;;
62582;SDS011;48641;51.676;5.808;2023-03-01T20:45:14;5.63;;;2.00;;
62582;SDS011;48641;51.676;5.808;2023-03-01T20:47:48;4.97;;;2.00;;
62582;SDS011;48641;51.676;5.808;2023-03-01T20:50:34;4.53;;;1.88;;
62582;SDS011;48641;51.676;5.808;2023-03-01T20:53:03;6.28;;;2.20;;
62582;SDS011;48641;51.676;5.808;2023-03-01T21:03:29;6.10;;;2.25;;
62582;SDS011;48641;51.676;5.808;2023-03-01T21:05:58;6.10;;;1.90;;
62582;SDS011;48641;51.676;5.808;2023-03-01T21:08:26;4.80;;;2.00;;
62582;SDS011;48641;51.676;5.808;2023-03-01T21:10:55;4.78;;;2.10;;
62582;SDS011;48641;51.676;5.808;2023-03-01T21:13:22;3.97;;;1.77;;
62582;SDS011;48641;51.676;5.808;2023-03-01T21:16:08;5.07;;;1.90;;
62582;SDS011;48641;51.676;5.808;2023-03-01T21:18:37;5.05;;;1.95;;
62582;SDS011;48641;51.676;5.808;2023-03-01T21:21:12;5.15;;;2.17;;
62582;SDS011;48641;51.676;5.808;2023-03-01T21:23:40;5.22;;;2.00;;
62582;SDS011;48641;51.676;5.808;2023-03-01T21:26:08;5.57;;;2.03;;
62582;SDS011;48641;51.676;5.808;2023-03-01T21:28:35;4.47;;;1.75;;
62582;SDS011;48641;51.676;5.808;2023-03-01T21:31:03;4.60;;;1.90;;
62582;SDS011;48641;51.676;5.808;2023-03-01T21:33:45;3.92;;;1.80;;
62582;SDS011;48641;51.676;5.808;2023-03-01T21:36:13;4.78;;;1.88;;
62582;SDS011;48641;51.676;5.808;2023-03-01T21:38:40;5.32;;;1.88;;
62582;SDS011;48641;51.676;5.808;2023-03-01T21:41:09;5.50;;;2.03;;
62582;SDS011;48641;51.676;5.808;2023-03-01T21:43:47;5.50;;;2.13;;
62582;SDS011;48641;51.676;5.808;2023-03-01T21:46:18;5.43;;;2.05;;
62582;SDS011;48641;51.676;5.808;2023-03-01T21:48:48;9.38;;;3.65;;
62582;SDS011;48641;51.676;5.808;2023-03-01T21:51:15;5.25;;;2.40;;
62582;SDS011;48641;51.676;5.808;2023-03-01T21:53:42;6.50;;;2.35;;
62582;SDS011;48641;51.676;5.808;2023-03-01T21:56:08;5.13;;;1.98;;
62582;SDS011;48641;51.676;5.808;2023-03-01T21:58:38;5.97;;;2.38;;
62582;SDS011;48641;51.676;5.808;2023-03-01T22:01:06;6.43;;;2.60;;
62582;SDS011;48641;51.676;5.808;2023-03-01T22:06:09;6.50;;;2.65;;
62582;SDS011;48641;51.676;5.808;2023-03-01T22:09:04;6.00;;;2.50;;
62582;SDS011;48641;51.676;5.808;2023-03-01T22:11:37;5.38;;;2.38;;
62582;SDS011;48641;51.676;5.808;2023-03-01T22:14:04;6.15;;;2.30;;
62582;SDS011;48641;51.676;5.808;2023-03-01T22:16:32;6.05;;;2.20;;